INFORMAÇÕES DO AERODROMO
Icao Aerodromo SBIL Nome do Aerodromo Bahia - Jorge Amado Airport Cidade Ilhéus
Código GPS SBIL Elevação Média 15 ft Tipo de Aerodromo Aeroporto Médio Porte

INFORMAÇÃO DE PISTA
Pista 11 Comprimento da Pista 5174 ft Largura da Pista 148 ft
Elevação da Pista 0 ft Distância de Area de Escape da Pista 0 ft Orientação da Pista 0
Pista 29 Comprimento da Pista 5174 ft Largura da Pista 148 ft
Elevação da Pista 0 ft Distância de Area de Escape da Pista 0 ft Orientação da Pista 0

FREQUÊNCIAS DO AERODROMO
Tipo APP Nome APP Frequência 120.1 MHZ

INFORMAÇÕES DE NAVEGAÇÃO PRÓXIMO AO AERODROMO
Tipo NDB Nome Ilheus Frequência 305 KHZ

Informações de Meteorologia(METAR atual)
METAR DE SBIL
ADDS - METARS form results

(1825 UTC 19 October 2018)
Data provider http://aviationweather.gov/metar/data/
 
Forecast for: SBIL (ILHEUS AIRPORT , BR)
Text: TAF SBIL 190900Z 1912/1924 07009KT 9999 SCT025 TX30/1915Z TN26/1923Z RMK PEA
Forecast period: 1200 UTC 19 October 2018 to 0000 UTC 20 October 2018
Forecast type: FROM: standard forecast or significant change
Winds: from the ENE (70 degrees) at 10 MPH (9 knots; 4.6 m/s)
Visibility: 6 or more miles 10+ km)
Ceiling: at least 12,000 feet AGL
Clouds: scattered clouds at 2500 feet AGL
Weather: no significant weather forecast for this period

MAPA DO AERODROMO


Desenvolvido por Virtual Airlines Manager




Modificado por Servidor Brasil Amigos